sensor_id;sensor_type;location;lat;lon;timestamp;temperature;humidity
70368;DHT22;57789;53.868;10.728;2023-11-21T00:01:59;7.20;99.90
70368;DHT22;57789;53.868;10.728;2023-11-21T00:04:25;7.30;99.90
70368;DHT22;57789;53.868;10.728;2023-11-21T00:06:51;7.30;99.90
70368;DHT22;57789;53.868;10.728;2023-11-21T00:09:17;7.30;99.90
70368;DHT22;57789;53.868;10.728;2023-11-21T00:11:43;7.40;99.90
70368;DHT22;57789;53.868;10.728;2023-11-21T00:14:12;7.30;99.90
70368;DHT22;57789;53.868;10.728;2023-11-21T00:16:40;7.30;99.90
70368;DHT22;57789;53.868;10.728;2023-11-21T00:19:06;7.30;99.90
70368;DHT22;57789;53.868;10.728;2023-11-21T00:21:32;7.30;99.90
70368;DHT22;57789;53.868;10.728;2023-11-21T00:23:58;7.30;99.90
70368;DHT22;57789;53.868;10.728;2023-11-21T00:26:23;7.30;99.90
70368;DHT22;57789;53.868;10.728;2023-11-21T00:28:50;7.30;99.90
70368;DHT22;57789;53.868;10.728;2023-11-21T00:31:16;7.30;99.90
70368;DHT22;57789;53.868;10.728;2023-11-21T00:33:42;7.30;99.90
70368;DHT22;57789;53.868;10.728;2023-11-21T00:36:09;7.30;99.90
70368;DHT22;57789;53.868;10.728;2023-11-21T00:38:36;7.30;99.90
70368;DHT22;57789;53.868;10.728;2023-11-21T00:41:02;7.20;99.90
70368;DHT22;57789;53.868;10.728;2023-11-21T00:43:28;7.30;99.90
70368;DHT22;57789;53.868;10.728;2023-11-21T00:45:54;7.20;99.90
70368;DHT22;57789;53.868;10.728;2023-11-21T00:48:20;7.20;99.90
70368;DHT22;57789;53.868;10.728;2023-11-21T00:50:45;7.10;99.90
70368;DHT22;57789;53.868;10.728;2023-11-21T00:53:11;7.10;99.90
70368;DHT22;57789;53.868;10.728;2023-11-21T00:55:37;7.10;99.90
70368;DHT22;57789;53.868;10.728;2023-11-21T00:58:05;7.10;99.90
70368;DHT22;57789;53.868;10.728;2023-11-21T01:00:33;7.10;99.90
70368;DHT22;57789;53.868;10.728;2023-11-21T01:02:59;7.20;99.90
70368;DHT22;57789;53.868;10.728;2023-11-21T01:05:25;7.20;99.90
70368;DHT22;57789;53.868;10.728;2023-11-21T01:07:52;7.20;99.90
70368;DHT22;57789;53.868;10.728;2023-11-21T01:10:18;7.10;99.90
70368;DHT22;57789;53.868;10.728;2023-11-21T01:12:44;7.10;99.90
70368;DHT22;57789;53.868;10.728;2023-11-21T01:15:10;7.10;99.90
70368;DHT22;57789;53.868;10.728;2023-11-21T01:17:38;7.00;99.90
70368;DHT22;57789;53.868;10.728;2023-11-21T01:20:04;7.00;99.90
70368;DHT22;57789;53.868;10.728;2023-11-21T01:22:36;7.10;99.90
70368;DHT22;57789;53.868;10.728;2023-11-21T01:25:02;7.10;99.90
70368;DHT22;57789;53.868;10.728;2023-11-21T01:27:30;7.10;99.90
70368;DHT22;57789;53.868;10.728;2023-11-21T01:29:55;7.10;99.90
70368;DHT22;57789;53.868;10.728;2023-11-21T01:32:21;7.00;99.90
70368;DHT22;57789;53.868;10.728;2023-11-21T01:34:49;7.00;99.90
70368;DHT22;57789;53.868;10.728;2023-11-21T01:37:15;7.00;99.90
70368;DHT22;57789;53.868;10.728;2023-11-21T01:39:43;7.00;99.90
70368;DHT22;57789;53.868;10.728;2023-11-21T01:42:10;6.90;99.90
70368;DHT22;57789;53.868;10.728;2023-11-21T01:44:36;6.90;99.90
70368;DHT22;57789;53.868;10.728;2023-11-21T01:47:03;6.90;99.90
70368;DHT22;57789;53.868;10.728;2023-11-21T01:49:34;6.90;99.90
70368;DHT22;57789;53.868;10.728;2023-11-21T01:52:00;6.90;99.90
70368;DHT22;57789;53.868;10.728;2023-11-21T01:54:28;6.80;99.90
70368;DHT22;57789;53.868;10.728;2023-11-21T01:57:00;6.80;99.90
70368;DHT22;57789;53.868;10.728;2023-11-21T01:59:34;6.90;99.90
70368;DHT22;57789;53.868;10.728;2023-11-21T02:02:06;6.80;99.90
70368;DHT22;57789;53.868;10.728;2023-11-21T02:04:36;6.80;99.90
70368;DHT22;57789;53.868;10.728;2023-11-21T02:07:03;6.80;99.90
70368;DHT22;57789;53.868;10.728;2023-11-21T02:09:32;6.80;99.90
70368;DHT22;57789;53.868;10.728;2023-11-21T02:12:04;6.80;99.90
70368;DHT22;57789;53.868;10.728;2023-11-21T02:14:31;6.80;99.90
70368;DHT22;57789;53.868;10.728;2023-11-21T02:16:58;6.80;99.90
70368;DHT22;57789;53.868;10.728;2023-11-21T02:19:26;6.70;99.90
70368;DHT22;57789;53.868;10.728;2023-11-21T02:21:53;6.80;99.90
70368;DHT22;57789;53.868;10.728;2023-11-21T02:24:20;6.80;99.90
70368;DHT22;57789;53.868;10.728;2023-11-21T02:26:49;6.80;99.90
70368;DHT22;57789;53.868;10.728;2023-11-21T02:29:20;6.80;99.90
70368;DHT22;57789;53.868;10.728;2023-11-21T02:31:50;6.80;99.90
70368;DHT22;57789;53.868;10.728;2023-11-21T02:34:17;6.80;99.90
70368;DHT22;57789;53.868;10.728;2023-11-21T02:36:47;6.80;99.90
70368;DHT22;57789;53.868;10.728;2023-11-21T02:39:16;6.80;99.90
70368;DHT22;57789;53.868;10.728;2023-11-21T02:41:47;6.80;99.90
70368;DHT22;57789;53.868;10.728;2023-11-21T02:44:13;6.80;99.90
70368;DHT22;57789;53.868;10.728;2023-11-21T02:46:39;6.70;99.90
70368;DHT22;57789;53.868;10.728;2023-11-21T02:49:05;6.70;99.90
70368;DHT22;57789;53.868;10.728;2023-11-21T02:51:32;6.70;99.90
70368;DHT22;57789;53.868;10.728;2023-11-21T02:53:59;6.70;99.90
70368;DHT22;57789;53.868;10.728;2023-11-21T02:56:28;6.80;99.90
70368;DHT22;57789;53.868;10.728;2023-11-21T03:05:00;6.70;99.90
70368;DHT22;57789;53.868;10.728;2023-11-21T03:07:25;6.80;99.90
70368;DHT22;57789;53.868;10.728;2023-11-21T03:09:51;6.80;99.90
70368;DHT22;57789;53.868;10.728;2023-11-21T03:12:17;6.70;99.90
70368;DHT22;57789;53.868;10.728;2023-11-21T03:14:42;6.80;99.90
70368;DHT22;57789;53.868;10.728;2023-11-21T03:17:08;6.90;99.90
70368;DHT22;57789;53.868;10.728;2023-11-21T03:19:34;6.90;99.90
70368;DHT22;57789;53.868;10.728;2023-11-21T03:21:59;6.80;99.90
70368;DHT22;57789;53.868;10.728;2023-11-21T03:24:25;6.90;99.90
70368;DHT22;57789;53.868;10.728;2023-11-21T03:26:52;6.90;99.90
70368;DHT22;57789;53.868;10.728;2023-11-21T03:29:18;6.80;99.90
70368;DHT22;57789;53.868;10.728;2023-11-21T03:31:44;6.80;99.90
70368;DHT22;57789;53.868;10.728;2023-11-21T03:34:16;6.80;99.90
70368;DHT22;57789;53.868;10.728;2023-11-21T03:36:41;6.80;99.90
70368;DHT22;57789;53.868;10.728;2023-11-21T03:39:07;6.80;99.90
70368;DHT22;57789;53.868;10.728;2023-11-21T03:41:33;6.80;99.90
70368;DHT22;57789;53.868;10.728;2023-11-21T03:43:59;6.80;99.90
70368;DHT22;57789;53.868;10.728;2023-11-21T03:46:25;6.80;99.90
70368;DHT22;57789;53.868;10.728;2023-11-21T03:48:51;6.70;99.90
70368;DHT22;57789;53.868;10.728;2023-11-21T03:51:17;6.90;99.90
70368;DHT22;57789;53.868;10.728;2023-11-21T03:53:42;6.80;99.90
70368;DHT22;57789;53.868;10.728;2023-11-21T03:56:08;6.90;99.90
70368;DHT22;57789;53.868;10.728;2023-11-21T03:58:34;6.90;99.90
70368;DHT22;57789;53.868;10.728;2023-11-21T04:01:00;6.90;99.90
70368;DHT22;57789;53.868;10.728;2023-11-21T04:03:27;6.90;99.90
70368;DHT22;57789;53.868;10.728;2023-11-21T04:05:52;6.90;99.90
70368;DHT22;57789;53.868;10.728;2023-11-21T04:08:18;6.90;99.90
70368;DHT22;57789;53.868;10.728;2023-11-21T04:10:44;6.80;99.90
70368;DHT22;57789;53.868;10.728;2023-11-21T04:13:10;6.80;99.90
70368;DHT22;57789;53.868;10.728;2023-11-21T04:15:36;6.80;99.90
70368;DHT22;57789;53.868;10.728;2023-11-21T04:18:01;6.90;99.90
70368;DHT22;57789;53.868;10.728;2023-11-21T04:20:27;6.90;99.90
70368;DHT22;57789;53.868;10.728;2023-11-21T04:22:53;7.00;99.90
70368;DHT22;57789;53.868;10.728;2023-11-21T04:25:19;6.90;99.90
70368;DHT22;57789;53.868;10.728;2023-11-21T04:27:45;6.90;99.90
70368;DHT22;57789;53.868;10.728;2023-11-21T04:30:14;7.00;99.90
70368;DHT22;57789;53.868;10.728;2023-11-21T04:32:40;7.00;99.90
70368;DHT22;57789;53.868;10.728;2023-11-21T04:35:07;7.10;99.90
70368;DHT22;57789;53.868;10.728;2023-11-21T04:37:34;7.10;99.90
70368;DHT22;57789;53.868;10.728;2023-11-21T04:40:00;7.10;99.90
70368;DHT22;57789;53.868;10.728;2023-11-21T04:42:26;7.00;99.90
70368;DHT22;57789;53.868;10.728;2023-11-21T04:44:52;7.00;99.90
70368;DHT22;57789;53.868;10.728;2023-11-21T04:47:18;6.90;99.90
70368;DHT22;57789;53.868;10.728;2023-11-21T04:49:46;7.00;99.90
70368;DHT22;57789;53.868;10.728;2023-11-21T04:52:14;7.00;99.90
70368;DHT22;57789;53.868;10.728;2023-11-21T04:54:40;7.00;99.90
70368;DHT22;57789;53.868;10.728;2023-11-21T04:57:06;7.00;99.90
70368;DHT22;57789;53.868;10.728;2023-11-21T04:59:33;7.00;99.90
70368;DHT22;57789;53.868;10.728;2023-11-21T05:01:59;6.90;99.90
70368;DHT22;57789;53.868;10.728;2023-11-21T05:04:26;6.90;99.90
70368;DHT22;57789;53.868;10.728;2023-11-21T05:06:52;6.90;99.90
70368;DHT22;57789;53.868;10.728;2023-11-21T05:09:19;6.90;99.90
70368;DHT22;57789;53.868;10.728;2023-11-21T05:11:44;6.90;99.90
70368;DHT22;57789;53.868;10.728;2023-11-21T05:14:10;6.90;99.90
70368;DHT22;57789;53.868;10.728;2023-11-21T05:16:36;6.80;99.90
70368;DHT22;57789;53.868;10.728;2023-11-21T05:19:02;6.80;99.90
70368;DHT22;57789;53.868;10.728;2023-11-21T05:21:29;6.80;99.90
70368;DHT22;57789;53.868;10.728;2023-11-21T05:23:57;6.80;99.90
70368;DHT22;57789;53.868;10.728;2023-11-21T05:26:23;6.80;99.90
70368;DHT22;57789;53.868;10.728;2023-11-21T05:28:49;6.80;99.90
70368;DHT22;57789;53.868;10.728;2023-11-21T05:31:15;6.90;99.90
70368;DHT22;57789;53.868;10.728;2023-11-21T05:33:41;6.90;99.90
70368;DHT22;57789;53.868;10.728;2023-11-21T05:36:07;6.80;99.90
70368;DHT22;57789;53.868;10.728;2023-11-21T05:38:34;6.80;99.90
70368;DHT22;57789;53.868;10.728;2023-11-21T05:41:01;6.80;99.90
70368;DHT22;57789;53.868;10.728;2023-11-21T05:43:26;6.80;99.90
70368;DHT22;57789;53.868;10.728;2023-11-21T05:45:54;6.80;99.90
70368;DHT22;57789;53.868;10.728;2023-11-21T05:48:20;6.80;99.90
70368;DHT22;57789;53.868;10.728;2023-11-21T05:50:46;6.80;99.90
70368;DHT22;57789;53.868;10.728;2023-11-21T05:53:13;6.80;99.90
70368;DHT22;57789;53.868;10.728;2023-11-21T05:55:41;6.80;99.90
70368;DHT22;57789;53.868;10.728;2023-11-21T05:58:08;6.80;99.90
70368;DHT22;57789;53.868;10.728;2023-11-21T06:00:33;6.90;99.90
70368;DHT22;57789;53.868;10.728;2023-11-21T06:02:59;6.90;99.90
70368;DHT22;57789;53.868;10.728;2023-11-21T06:05:26;6.90;99.90
70368;DHT22;57789;53.868;10.728;2023-11-21T06:07:53;6.90;99.90
70368;DHT22;57789;53.868;10.728;2023-11-21T06:10:21;6.80;99.90
70368;DHT22;57789;53.868;10.728;2023-11-21T06:12:47;6.90;99.90
70368;DHT22;57789;53.868;10.728;2023-11-21T06:15:12;6.80;99.90
70368;DHT22;57789;53.868;10.728;2023-11-21T06:17:44;6.80;99.90
70368;DHT22;57789;53.868;10.728;2023-11-21T06:20:14;6.80;99.90
70368;DHT22;57789;53.868;10.728;2023-11-21T06:22:47;6.80;99.90
70368;DHT22;57789;53.868;10.728;2023-11-21T06:25:14;6.70;99.90
70368;DHT22;57789;53.868;10.728;2023-11-21T06:27:44;6.80;99.90
70368;DHT22;57789;53.868;10.728;2023-11-21T06:30:11;6.80;99.90
70368;DHT22;57789;53.868;10.728;2023-11-21T06:32:38;6.90;99.90
70368;DHT22;57789;53.868;10.728;2023-11-21T06:35:05;6.90;99.90
70368;DHT22;57789;53.868;10.728;2023-11-21T06:37:32;6.90;99.90
70368;DHT22;57789;53.868;10.728;2023-11-21T06:39:58;6.90;99.90
70368;DHT22;57789;53.868;10.728;2023-11-21T06:42:25;6.90;99.90
70368;DHT22;57789;53.868;10.728;2023-11-21T06:44:51;7.00;99.90
70368;DHT22;57789;53.868;10.728;2023-11-21T06:47:18;7.00;99.90
70368;DHT22;57789;53.868;10.728;2023-11-21T06:49:45;6.90;99.90
70368;DHT22;57789;53.868;10.728;2023-11-21T06:52:13;6.80;99.90
70368;DHT22;57789;53.868;10.728;2023-11-21T06:54:39;6.80;99.90
70368;DHT22;57789;53.868;10.728;2023-11-21T06:57:05;6.80;99.90
70368;DHT22;57789;53.868;10.728;2023-11-21T06:59:31;6.80;99.90
70368;DHT22;57789;53.868;10.728;2023-11-21T07:01:57;6.90;99.90
70368;DHT22;57789;53.868;10.728;2023-11-21T07:04:23;6.90;99.90
70368;DHT22;57789;53.868;10.728;2023-11-21T07:06:51;7.00;99.90
70368;DHT22;57789;53.868;10.728;2023-11-21T07:09:17;6.90;99.90
70368;DHT22;57789;53.868;10.728;2023-11-21T07:11:43;7.00;99.90
70368;DHT22;57789;53.868;10.728;2023-11-21T07:14:08;7.00;99.90
70368;DHT22;57789;53.868;10.728;2023-11-21T07:16:36;7.00;99.90
70368;DHT22;57789;53.868;10.728;2023-11-21T07:19:05;7.10;99.90
70368;DHT22;57789;53.868;10.728;2023-11-21T07:21:35;7.00;99.90
70368;DHT22;57789;53.868;10.728;2023-11-21T07:24:04;7.00;99.90
70368;DHT22;57789;53.868;10.728;2023-11-21T07:26:30;7.00;99.90
70368;DHT22;57789;53.868;10.728;2023-11-21T07:28:56;7.10;99.90
70368;DHT22;57789;53.868;10.728;2023-11-21T07:31:22;7.00;99.90
70368;DHT22;57789;53.868;10.728;2023-11-21T07:33:50;7.00;99.90
70368;DHT22;57789;53.868;10.728;2023-11-21T07:36:22;7.00;99.90
70368;DHT22;57789;53.868;10.728;2023-11-21T07:38:48;7.00;99.90
70368;DHT22;57789;53.868;10.728;2023-11-21T07:41:15;6.90;99.90
70368;DHT22;57789;53.868;10.728;2023-11-21T07:43:42;7.00;99.90
70368;DHT22;57789;53.868;10.728;2023-11-21T07:46:07;7.00;99.90
70368;DHT22;57789;53.868;10.728;2023-11-21T07:48:36;7.00;99.90
70368;DHT22;57789;53.868;10.728;2023-11-21T07:51:02;6.90;99.90
70368;DHT22;57789;53.868;10.728;2023-11-21T07:53:32;6.90;99.90
70368;DHT22;57789;53.868;10.728;2023-11-21T07:56:06;6.80;99.90
70368;DHT22;57789;53.868;10.728;2023-11-21T07:58:34;6.80;99.90
70368;DHT22;57789;53.868;10.728;2023-11-21T08:01:01;6.90;99.90
70368;DHT22;57789;53.868;10.728;2023-11-21T08:03:27;6.90;99.90
70368;DHT22;57789;53.868;10.728;2023-11-21T08:05:56;6.80;99.90
70368;DHT22;57789;53.868;10.728;2023-11-21T08:08:22;6.80;99.90
70368;DHT22;57789;53.868;10.728;2023-11-21T08:10:47;7.00;99.90
70368;DHT22;57789;53.868;10.728;2023-11-21T08:13:14;7.00;99.90
70368;DHT22;57789;53.868;10.728;2023-11-21T08:15:41;7.00;99.90
70368;DHT22;57789;53.868;10.728;2023-11-21T08:18:11;7.10;99.90
70368;DHT22;57789;53.868;10.728;2023-11-21T08:20:38;7.00;99.90
70368;DHT22;57789;53.868;10.728;2023-11-21T08:23:05;7.00;99.90
70368;DHT22;57789;53.868;10.728;2023-11-21T08:25:32;7.00;99.90
70368;DHT22;57789;53.868;10.728;2023-11-21T08:28:00;7.00;99.90
70368;DHT22;57789;53.868;10.728;2023-11-21T08:30:27;7.10;99.90
70368;DHT22;57789;53.868;10.728;2023-11-21T08:32:55;7.10;99.90
70368;DHT22;57789;53.868;10.728;2023-11-21T08:35:24;7.00;99.90
70368;DHT22;57789;53.868;10.728;2023-11-21T08:37:53;7.00;99.90
70368;DHT22;57789;53.868;10.728;2023-11-21T08:40:19;7.00;99.90
70368;DHT22;57789;53.868;10.728;2023-11-21T08:42:47;7.00;99.90
70368;DHT22;57789;53.868;10.728;2023-11-21T08:45:16;7.00;99.90
70368;DHT22;57789;53.868;10.728;2023-11-21T08:47:43;7.10;99.90
70368;DHT22;57789;53.868;10.728;2023-11-21T08:50:11;7.00;99.90
70368;DHT22;57789;53.868;10.728;2023-11-21T08:52:38;7.00;99.90
70368;DHT22;57789;53.868;10.728;2023-11-21T08:55:05;7.00;99.90
70368;DHT22;57789;53.868;10.728;2023-11-21T08:57:37;7.20;99.90
70368;DHT22;57789;53.868;10.728;2023-11-21T09:00:04;7.00;99.90
70368;DHT22;57789;53.868;10.728;2023-11-21T09:02:34;7.00;99.90
70368;DHT22;57789;53.868;10.728;2023-11-21T09:05:00;6.90;99.90
70368;DHT22;57789;53.868;10.728;2023-11-21T09:07:28;6.90;99.90
70368;DHT22;57789;53.868;10.728;2023-11-21T09:09:54;6.90;99.90
70368;DHT22;57789;53.868;10.728;2023-11-21T09:12:20;6.80;99.90
70368;DHT22;57789;53.868;10.728;2023-11-21T09:14:47;6.80;99.90
70368;DHT22;57789;53.868;10.728;2023-11-21T09:17:13;6.80;99.90
70368;DHT22;57789;53.868;10.728;2023-11-21T09:19:40;6.70;99.90
70368;DHT22;57789;53.868;10.728;2023-11-21T09:22:06;6.60;99.90
70368;DHT22;57789;53.868;10.728;2023-11-21T09:24:35;6.60;99.90
70368;DHT22;57789;53.868;10.728;2023-11-21T09:27:02;6.50;99.90
70368;DHT22;57789;53.868;10.728;2023-11-21T09:29:29;6.50;99.90
70368;DHT22;57789;53.868;10.728;2023-11-21T09:32:07;6.50;99.90
70368;DHT22;57789;53.868;10.728;2023-11-21T09:34:34;6.50;99.90
70368;DHT22;57789;53.868;10.728;2023-11-21T09:37:04;6.40;99.90
70368;DHT22;57789;53.868;10.728;2023-11-21T09:39:32;6.50;99.90
70368;DHT22;57789;53.868;10.728;2023-11-21T09:42:11;6.50;99.90
70368;DHT22;57789;53.868;10.728;2023-11-21T09:47:07;6.70;99.90
70368;DHT22;57789;53.868;10.728;2023-11-21T09:49:37;6.60;99.90
70368;DHT22;57789;53.868;10.728;2023-11-21T09:52:04;6.60;99.90
70368;DHT22;57789;53.868;10.728;2023-11-21T09:54:34;6.70;99.90
70368;DHT22;57789;53.868;10.728;2023-11-21T09:57:00;6.80;99.90
70368;DHT22;57789;53.868;10.728;2023-11-21T09:59:30;6.80;99.90
70368;DHT22;57789;53.868;10.728;2023-11-21T10:01:58;6.80;99.90
70368;DHT22;57789;53.868;10.728;2023-11-21T10:04:24;6.80;99.90
70368;DHT22;57789;53.868;10.728;2023-11-21T10:06:51;6.80;99.90
70368;DHT22;57789;53.868;10.728;2023-11-21T10:09:17;6.80;99.90
70368;DHT22;57789;53.868;10.728;2023-11-21T10:11:46;6.80;99.90
70368;DHT22;57789;53.868;10.728;2023-11-21T10:14:12;6.90;99.90
70368;DHT22;57789;53.868;10.728;2023-11-21T10:16:41;7.10;99.90
70368;DHT22;57789;53.868;10.728;2023-11-21T10:19:10;7.10;99.90
70368;DHT22;57789;53.868;10.728;2023-11-21T10:21:38;7.10;99.90
70368;DHT22;57789;53.868;10.728;2023-11-21T10:24:04;7.20;99.90
70368;DHT22;57789;53.868;10.728;2023-11-21T10:26:32;7.20;99.90
70368;DHT22;57789;53.868;10.728;2023-11-21T10:29:00;7.30;99.90
70368;DHT22;57789;53.868;10.728;2023-11-21T10:31:33;7.10;99.90
70368;DHT22;57789;53.868;10.728;2023-11-21T10:34:13;7.10;99.90
70368;DHT22;57789;53.868;10.728;2023-11-21T10:36:39;7.10;99.90
70368;DHT22;57789;53.868;10.728;2023-11-21T10:39:05;7.10;99.90
70368;DHT22;57789;53.868;10.728;2023-11-21T10:41:31;7.10;99.90
70368;DHT22;57789;53.868;10.728;2023-11-21T10:43:57;7.20;99.90
70368;DHT22;57789;53.868;10.728;2023-11-21T10:46:23;7.20;99.90
70368;DHT22;57789;53.868;10.728;2023-11-21T10:48:54;7.30;99.90
70368;DHT22;57789;53.868;10.728;2023-11-21T10:51:22;7.50;99.90
70368;DHT22;57789;53.868;10.728;2023-11-21T10:53:52;7.50;99.90
70368;DHT22;57789;53.868;10.728;2023-11-21T10:56:19;7.50;99.90
70368;DHT22;57789;53.868;10.728;2023-11-21T10:58:49;7.50;99.90
70368;DHT22;57789;53.868;10.728;2023-11-21T11:01:18;7.50;99.90
70368;DHT22;57789;53.868;10.728;2023-11-21T11:03:47;7.40;99.90
70368;DHT22;57789;53.868;10.728;2023-11-21T11:06:13;7.50;99.90
70368;DHT22;57789;53.868;10.728;2023-11-21T11:08:40;7.60;99.90
70368;DHT22;57789;53.868;10.728;2023-11-21T11:11:07;7.60;99.90
70368;DHT22;57789;53.868;10.728;2023-11-21T11:13:33;7.40;99.90
70368;DHT22;57789;53.868;10.728;2023-11-21T11:16:00;7.50;99.90
70368;DHT22;57789;53.868;10.728;2023-11-21T11:18:30;7.40;99.90
70368;DHT22;57789;53.868;10.728;2023-11-21T11:21:28;7.30;99.90
70368;DHT22;57789;53.868;10.728;2023-11-21T11:24:29;7.30;99.90
70368;DHT22;57789;53.868;10.728;2023-11-21T11:29:52;7.10;99.90
70368;DHT22;57789;53.868;10.728;2023-11-21T11:38:31;7.00;99.90
70368;DHT22;57789;53.868;10.728;2023-11-21T11:41:01;6.90;99.90
70368;DHT22;57789;53.868;10.728;2023-11-21T11:43:29;6.90;99.90
70368;DHT22;57789;53.868;10.728;2023-11-21T11:45:59;6.90;99.90
70368;DHT22;57789;53.868;10.728;2023-11-21T11:48:25;6.80;99.90
70368;DHT22;57789;53.868;10.728;2023-11-21T11:51:13;6.80;99.90
70368;DHT22;57789;53.868;10.728;2023-11-21T11:53:47;6.80;99.90
70368;DHT22;57789;53.868;10.728;2023-11-21T11:56:28;6.90;99.90
70368;DHT22;57789;53.868;10.728;2023-11-21T11:58:58;6.90;99.90
70368;DHT22;57789;53.868;10.728;2023-11-21T12:01:27;6.90;99.90
70368;DHT22;57789;53.868;10.728;2023-11-21T12:06:41;7.00;99.90
70368;DHT22;57789;53.868;10.728;2023-11-21T12:09:10;7.00;99.90
70368;DHT22;57789;53.868;10.728;2023-11-21T12:11:41;7.10;99.90
70368;DHT22;57789;53.868;10.728;2023-11-21T12:14:09;7.10;99.90
70368;DHT22;57789;53.868;10.728;2023-11-21T12:16:35;7.10;99.90
70368;DHT22;57789;53.868;10.728;2023-11-21T12:19:01;7.10;99.90
70368;DHT22;57789;53.868;10.728;2023-11-21T12:21:28;7.10;99.90
70368;DHT22;57789;53.868;10.728;2023-11-21T12:23:54;7.10;99.90
70368;DHT22;57789;53.868;10.728;2023-11-21T12:26:19;7.00;99.90
70368;DHT22;57789;53.868;10.728;2023-11-21T12:28:52;7.10;99.90
70368;DHT22;57789;53.868;10.728;2023-11-21T12:31:22;7.10;99.90
70368;DHT22;57789;53.868;10.728;2023-11-21T12:33:47;7.10;99.90
70368;DHT22;57789;53.868;10.728;2023-11-21T12:36:13;7.10;99.90
70368;DHT22;57789;53.868;10.728;2023-11-21T12:38:39;7.20;99.90
70368;DHT22;57789;53.868;10.728;2023-11-21T12:41:06;7.10;99.90
70368;DHT22;57789;53.868;10.728;2023-11-21T12:43:32;7.10;99.90
70368;DHT22;57789;53.868;10.728;2023-11-21T12:46:11;7.10;99.90
70368;DHT22;57789;53.868;10.728;2023-11-21T12:48:42;6.90;99.90
70368;DHT22;57789;53.868;10.728;2023-11-21T12:51:10;6.90;99.90
70368;DHT22;57789;53.868;10.728;2023-11-21T12:53:38;6.70;99.90
70368;DHT22;57789;53.868;10.728;2023-11-21T12:56:24;6.60;99.90
70368;DHT22;57789;53.868;10.728;2023-11-21T12:58:50;6.40;99.90
70368;DHT22;57789;53.868;10.728;2023-11-21T13:01:17;6.30;99.90
70368;DHT22;57789;53.868;10.728;2023-11-21T13:03:49;6.20;99.90
70368;DHT22;57789;53.868;10.728;2023-11-21T13:06:17;6.10;99.90
70368;DHT22;57789;53.868;10.728;2023-11-21T13:08:44;6.10;99.90
70368;DHT22;57789;53.868;10.728;2023-11-21T13:11:11;6.10;99.90
70368;DHT22;57789;53.868;10.728;2023-11-21T13:13:40;6.10;99.90
70368;DHT22;57789;53.868;10.728;2023-11-21T13:16:07;6.00;99.90
70368;DHT22;57789;53.868;10.728;2023-11-21T13:18:34;5.90;99.90
70368;DHT22;57789;53.868;10.728;2023-11-21T13:21:02;5.90;99.90
70368;DHT22;57789;53.868;10.728;2023-11-21T13:23:48;5.90;99.90
70368;DHT22;57789;53.868;10.728;2023-11-21T13:26:16;5.90;99.90
70368;DHT22;57789;53.868;10.728;2023-11-21T13:28:42;5.90;99.90
70368;DHT22;57789;53.868;10.728;2023-11-21T13:31:11;5.80;99.90
70368;DHT22;57789;53.868;10.728;2023-11-21T13:33:48;5.80;99.90
70368;DHT22;57789;53.868;10.728;2023-11-21T13:36:23;5.90;99.90
70368;DHT22;57789;53.868;10.728;2023-11-21T13:38:50;6.00;99.90
70368;DHT22;57789;53.868;10.728;2023-11-21T13:41:16;6.00;99.90
70368;DHT22;57789;53.868;10.728;2023-11-21T13:43:43;6.10;99.90
70368;DHT22;57789;53.868;10.728;2023-11-21T13:46:16;6.10;99.90
70368;DHT22;57789;53.868;10.728;2023-11-21T13:48:50;6.10;99.90
70368;DHT22;57789;53.868;10.728;2023-11-21T13:51:24;6.10;99.90
70368;DHT22;57789;53.868;10.728;2023-11-21T13:54:03;6.00;99.90
70368;DHT22;57789;53.868;10.728;2023-11-21T13:56:34;5.90;99.90
70368;DHT22;57789;53.868;10.728;2023-11-21T13:58:59;5.80;99.90
70368;DHT22;57789;53.868;10.728;2023-11-21T14:01:34;5.70;99.90
70368;DHT22;57789;53.868;10.728;2023-11-21T14:04:18;5.60;99.90
70368;DHT22;57789;53.868;10.728;2023-11-21T14:06:51;5.50;99.90
70368;DHT22;57789;53.868;10.728;2023-11-21T14:09:22;5.50;99.90
70368;DHT22;57789;53.868;10.728;2023-11-21T14:11:52;5.60;99.90
70368;DHT22;57789;53.868;10.728;2023-11-21T14:14:20;5.70;99.90
70368;DHT22;57789;53.868;10.728;2023-11-21T14:16:46;5.70;99.90
70368;DHT22;57789;53.868;10.728;2023-11-21T14:19:12;5.70;99.90
70368;DHT22;57789;53.868;10.728;2023-11-21T14:21:47;5.70;99.90
70368;DHT22;57789;53.868;10.728;2023-11-21T14:24:14;5.70;99.90
70368;DHT22;57789;53.868;10.728;2023-11-21T14:26:48;5.70;99.90
70368;DHT22;57789;53.868;10.728;2023-11-21T14:29:16;5.60;99.90
70368;DHT22;57789;53.868;10.728;2023-11-21T14:31:46;5.60;99.90
70368;DHT22;57789;53.868;10.728;2023-11-21T14:34:12;5.50;99.90
70368;DHT22;57789;53.868;10.728;2023-11-21T14:36:39;5.60;99.90
70368;DHT22;57789;53.868;10.728;2023-11-21T14:39:05;5.60;99.90
70368;DHT22;57789;53.868;10.728;2023-11-21T14:41:53;5.60;99.90
70368;DHT22;57789;53.868;10.728;2023-11-21T14:44:21;5.60;99.90
70368;DHT22;57789;53.868;10.728;2023-11-21T14:46:55;5.60;99.90
70368;DHT22;57789;53.868;10.728;2023-11-21T14:49:22;5.60;99.90
70368;DHT22;57789;53.868;10.728;2023-11-21T14:51:53;5.50;99.90
70368;DHT22;57789;53.868;10.728;2023-11-21T14:54:29;5.50;99.90
70368;DHT22;57789;53.868;10.728;2023-11-21T14:57:13;5.40;99.90
70368;DHT22;57789;53.868;10.728;2023-11-21T14:59:45;5.40;99.90
70368;DHT22;57789;53.868;10.728;2023-11-21T15:02:18;5.30;99.90
70368;DHT22;57789;53.868;10.728;2023-11-21T15:04:55;5.40;99.90
70368;DHT22;57789;53.868;10.728;2023-11-21T15:07:27;5.40;99.90
70368;DHT22;57789;53.868;10.728;2023-11-21T15:09:56;5.30;99.90
70368;DHT22;57789;53.868;10.728;2023-11-21T15:12:22;5.30;99.90
70368;DHT22;57789;53.868;10.728;2023-11-21T15:14:52;5.20;99.90
70368;DHT22;57789;53.868;10.728;2023-11-21T15:17:19;5.20;99.90
70368;DHT22;57789;53.868;10.728;2023-11-21T15:19:51;5.20;99.90
70368;DHT22;57789;53.868;10.728;2023-11-21T15:22:17;5.20;99.90
70368;DHT22;57789;53.868;10.728;2023-11-21T15:24:43;5.20;99.90
70368;DHT22;57789;53.868;10.728;2023-11-21T15:27:12;5.20;99.90
70368;DHT22;57789;53.868;10.728;2023-11-21T15:29:39;5.10;99.90
70368;DHT22;57789;53.868;10.728;2023-11-21T15:32:06;5.10;99.90
70368;DHT22;57789;53.868;10.728;2023-11-21T15:34:33;5.10;99.90
70368;DHT22;57789;53.868;10.728;2023-11-21T15:36:59;5.20;99.90
70368;DHT22;57789;53.868;10.728;2023-11-21T15:39:25;5.10;99.90
70368;DHT22;57789;53.868;10.728;2023-11-21T15:41:56;5.10;99.90
70368;DHT22;57789;53.868;10.728;2023-11-21T15:44:25;5.00;99.90
70368;DHT22;57789;53.868;10.728;2023-11-21T15:46:53;4.90;99.90
70368;DHT22;57789;53.868;10.728;2023-11-21T15:49:19;4.90;99.90
70368;DHT22;57789;53.868;10.728;2023-11-21T15:51:48;4.90;99.90
70368;DHT22;57789;53.868;10.728;2023-11-21T15:54:22;4.90;99.90
70368;DHT22;57789;53.868;10.728;2023-11-21T15:56:50;4.80;99.90